createdAt,value
2024-05-09T00:01:30.827Z,53.90
2024-05-09T00:04:33.332Z,54.30
2024-05-09T00:07:36.020Z,53.50
2024-05-09T00:10:40.311Z,53.70
2024-05-09T00:13:43.533Z,53.50
2024-05-09T00:16:46.125Z,53.50
2024-05-09T00:19:48.588Z,53.50
2024-05-09T00:22:53.408Z,52.60
2024-05-09T00:25:55.907Z,52.70
2024-05-09T00:28:59.658Z,52.50
2024-05-09T00:32:02.252Z,51.60
2024-05-09T00:35:05.115Z,51.90
2024-05-09T00:38:07.623Z,52.10
2024-05-09T00:41:10.170Z,51.90
2024-05-09T00:44:13.350Z,51.50
2024-05-09T00:47:15.912Z,52.20
2024-05-09T00:50:25.896Z,52.60
2024-05-09T00:53:36.556Z,52.40
2024-05-09T00:56:39.782Z,52.90
2024-05-09T00:59:42.439Z,53.60
2024-05-09T01:02:44.893Z,53.20
2024-05-09T01:05:47.381Z,53.10
2024-05-09T01:08:49.708Z,52.80
2024-05-09T01:11:54.541Z,53.00
2024-05-09T01:14:57.199Z,53.20
2024-05-09T01:18:01.684Z,53.60
2024-05-09T01:21:08.335Z,53.60
2024-05-09T01:24:11.147Z,54.00
2024-05-09T01:27:13.425Z,53.90
2024-05-09T01:30:38.076Z,54.20
2024-05-09T01:33:41.430Z,54.60
2024-05-09T01:36:44.032Z,55.00
2024-05-09T01:39:46.477Z,55.40
2024-05-09T01:42:48.861Z,55.60
2024-05-09T01:45:51.427Z,56.10
2024-05-09T01:48:54.047Z,56.60
2024-05-09T01:51:56.648Z,57.00
2024-05-09T01:55:00.772Z,57.20
2024-05-09T01:58:05.298Z,57.60
2024-05-09T02:01:07.698Z,57.60
2024-05-09T02:04:10.391Z,57.80
2024-05-09T02:07:13.085Z,58.00
2024-05-09T02:10:20.480Z,57.90
2024-05-09T02:13:28.712Z,58.80
2024-05-09T02:16:30.966Z,59.80
2024-05-09T02:19:33.475Z,60.10
2024-05-09T02:22:35.876Z,61.00
2024-05-09T02:25:38.308Z,61.60
2024-05-09T02:28:43.185Z,62.00
2024-05-09T02:31:45.780Z,62.30
2024-05-09T02:34:48.214Z,62.30
2024-05-09T02:37:50.800Z,62.60
2024-05-09T02:40:53.240Z,62.90
2024-05-09T02:43:55.755Z,63.30
2024-05-09T02:46:58.154Z,63.40
2024-05-09T02:50:01.985Z,63.70
2024-05-09T02:53:04.555Z,64.30
2024-05-09T02:56:07.386Z,64.40
2024-05-09T02:59:09.854Z,64.70
2024-05-09T03:02:12.377Z,64.50
2024-05-09T03:05:14.868Z,64.90
2024-05-09T03:08:17.537Z,65.00
2024-05-09T03:11:26.380Z,65.10
2024-05-09T03:14:29.336Z,65.50
2024-05-09T03:17:32.038Z,65.70
2024-05-09T03:20:36.262Z,66.20
2024-05-09T03:23:41.955Z,67.40
2024-05-09T03:26:44.523Z,68.10
2024-05-09T03:29:46.754Z,67.60
2024-05-09T03:32:49.331Z,67.70
2024-05-09T03:35:52.038Z,68.40
2024-05-09T03:38:54.470Z,68.90
2024-05-09T03:41:56.989Z,69.20
2024-05-09T03:45:00.573Z,69.10
2024-05-09T03:48:03.262Z,69.00
2024-05-09T03:51:07.379Z,68.90
2024-05-09T03:54:10.193Z,67.70
2024-05-09T03:57:12.685Z,67.20
2024-05-09T04:00:22.518Z,66.40
2024-05-09T04:03:34.527Z,66.10
2024-05-09T04:06:36.967Z,66.00
2024-05-09T04:09:39.573Z,65.30
2024-05-09T04:12:45.041Z,65.70
2024-05-09T04:15:55.802Z,66.00
2024-05-09T04:19:19.102Z,66.50
2024-05-09T04:22:21.781Z,67.20
2024-05-09T04:25:24.123Z,67.20
2024-05-09T04:28:27.114Z,67.60
2024-05-09T04:31:59.045Z,68.50
2024-05-09T04:35:01.492Z,69.30
2024-05-09T04:38:03.965Z,69.60
2024-05-09T04:41:06.346Z,69.80
2024-05-09T04:44:08.651Z,70.40
2024-05-09T04:47:12.656Z,70.70
2024-05-09T04:50:21.232Z,72.60
2024-05-09T04:53:31.750Z,72.10
2024-05-09T04:56:34.409Z,72.20
2024-05-09T04:59:37.082Z,72.40
2024-05-09T05:02:39.840Z,72.30
2024-05-09T05:05:42.763Z,73.20
2024-05-09T05:08:45.575Z,74.00
2024-05-09T05:11:47.993Z,74.20
2024-05-09T05:14:56.203Z,74.60
2024-05-09T05:17:59.273Z,75.10
2024-05-09T05:21:02.096Z,74.80
2024-05-09T05:24:06.081Z,75.10
2024-05-09T05:27:08.442Z,74.80
2024-05-09T05:30:17.583Z,74.80
2024-05-09T05:33:23.905Z,74.70
2024-05-09T05:36:26.358Z,74.30
2024-05-09T05:39:28.869Z,73.80
2024-05-09T05:42:31.454Z,74.80
2024-05-09T05:45:34.056Z,75.10
2024-05-09T05:48:37.520Z,75.80
2024-05-09T05:51:39.906Z,75.90
2024-05-09T05:54:42.213Z,75.80
2024-05-09T05:57:44.626Z,76.20
2024-05-09T06:00:47.068Z,77.60
2024-05-09T06:03:49.592Z,77.70
2024-05-09T06:06:52.341Z,77.90
2024-05-09T06:09:54.628Z,78.20
2024-05-09T06:12:56.905Z,78.50
2024-05-09T06:16:00.923Z,79.50
2024-05-09T06:19:05.174Z,79.60
2024-05-09T06:22:09.814Z,79.90
2024-05-09T06:25:12.073Z,79.40
2024-05-09T06:28:14.663Z,79.00
2024-05-09T06:31:17.070Z,78.50
2024-05-09T06:34:19.816Z,78.00
2024-05-09T06:37:22.307Z,78.20
2024-05-09T06:40:29.422Z,78.20
2024-05-09T06:43:38.440Z,77.20
2024-05-09T06:46:42.238Z,76.80
2024-05-09T06:49:45.024Z,73.30
2024-05-09T06:52:47.806Z,73.50
2024-05-09T06:55:50.378Z,73.30
2024-05-09T06:58:54.640Z,74.00
2024-05-09T07:01:57.371Z,73.60
2024-05-09T07:04:59.941Z,73.20
2024-05-09T07:08:02.462Z,73.60
2024-05-09T07:11:05.232Z,72.50
2024-05-09T07:14:07.986Z,72.50
2024-05-09T07:17:10.690Z,71.20
2024-05-09T07:20:23.000Z,71.30
2024-05-09T07:23:30.433Z,72.10
2024-05-09T07:26:32.811Z,71.10
2024-05-09T07:29:38.376Z,72.30
2024-05-09T07:32:41.224Z,73.40
2024-05-09T07:35:43.702Z,73.00
2024-05-09T07:38:46.113Z,73.60
2024-05-09T07:41:48.563Z,72.50
2024-05-09T07:45:11.199Z,72.20
2024-05-09T07:53:08.597Z,68.70
2024-05-09T07:54:52.415Z,69.50
2024-05-09T07:57:54.990Z,70.50
2024-05-09T08:00:57.573Z,71.40
2024-05-09T08:04:00.023Z,70.70
2024-05-09T08:07:02.443Z,71.40
2024-05-09T08:10:08.109Z,71.50
2024-05-09T08:13:12.955Z,71.20
2024-05-09T08:16:15.573Z,70.60
2024-05-09T08:19:17.954Z,70.00
2024-05-09T08:22:20.550Z,69.40
2024-05-09T08:25:23.066Z,67.70
2024-05-09T08:28:25.467Z,67.80
2024-05-09T08:31:27.958Z,66.20
2024-05-09T08:34:30.363Z,65.00
2024-05-09T08:37:37.799Z,62.40
2024-05-09T08:40:42.784Z,60.20
2024-05-09T08:43:46.331Z,60.90
2024-05-09T08:46:53.402Z,59.70
2024-05-09T08:49:59.506Z,59.70
2024-05-09T08:53:02.585Z,59.90
2024-05-09T08:56:09.708Z,57.40
2024-05-09T08:59:21.286Z,56.90
2024-05-09T09:02:24.859Z,56.40
2024-05-09T09:05:31.636Z,56.30
2024-05-09T09:08:39.857Z,56.80
2024-05-09T09:11:42.441Z,57.80
2024-05-09T09:14:44.956Z,57.00
2024-05-09T09:18:01.104Z,58.50
2024-05-09T09:21:04.254Z,58.20
2024-05-09T09:24:10.025Z,58.60
2024-05-09T09:27:16.094Z,60.20
2024-05-09T09:30:31.487Z,60.40
2024-05-09T09:33:43.202Z,60.40
2024-05-09T09:36:47.297Z,58.60
2024-05-09T09:39:50.603Z,58.10
2024-05-09T09:42:58.417Z,55.00
2024-05-09T09:46:11.575Z,55.90
2024-05-09T09:49:17.103Z,55.80
2024-05-09T09:52:20.550Z,54.40
2024-05-09T09:55:25.053Z,52.60
2024-05-09T09:58:29.474Z,49.80
2024-05-09T10:01:34.755Z,49.80
2024-05-09T10:04:37.574Z,48.50
2024-05-09T10:07:43.539Z,48.90
2024-05-09T10:10:50.865Z,48.30
2024-05-09T10:13:55.151Z,49.00
2024-05-09T10:17:07.151Z,50.00
2024-05-09T10:20:17.966Z,49.60
2024-05-09T10:23:30.758Z,47.60
2024-05-09T10:26:34.841Z,48.30
2024-05-09T10:29:37.171Z,47.20
2024-05-09T10:32:40.991Z,45.50
2024-05-09T10:35:52.037Z,46.40
2024-05-09T10:38:55.488Z,45.10
2024-05-09T10:41:59.223Z,44.20
2024-05-09T10:45:03.239Z,42.80
2024-05-09T10:48:06.233Z,42.30
2024-05-09T10:51:09.171Z,43.50
2024-05-09T10:54:11.759Z,45.80
2024-05-09T10:57:14.034Z,45.50
2024-05-09T11:00:27.054Z,44.50
2024-05-09T11:03:33.376Z,45.40
2024-05-09T11:06:38.460Z,42.70
2024-05-09T11:09:45.835Z,44.10
2024-05-09T11:12:48.208Z,42.60
2024-05-09T11:15:53.989Z,40.20
2024-05-09T11:18:58.217Z,38.60
2024-05-09T11:22:05.261Z,38.00
2024-05-09T11:25:09.461Z,39.30
2024-05-09T11:28:13.432Z,39.20
2024-05-09T11:31:16.057Z,40.00
2024-05-09T11:34:18.614Z,38.90
2024-05-09T11:37:21.556Z,38.40
2024-05-09T11:40:28.088Z,38.10
2024-05-09T11:43:34.788Z,40.70
2024-05-09T11:46:46.393Z,42.90
2024-05-09T11:49:48.958Z,43.90
2024-05-09T11:52:51.436Z,44.10
2024-05-09T11:55:54.014Z,44.40
2024-05-09T11:58:56.595Z,43.50
2024-05-09T12:01:59.287Z,43.50
2024-05-09T12:05:02.106Z,44.40
2024-05-09T12:08:04.891Z,45.60
2024-05-09T12:11:07.762Z,47.50
2024-05-09T12:14:10.436Z,46.50
2024-05-09T12:17:13.177Z,46.90
2024-05-09T12:20:21.579Z,46.90
2024-05-09T12:23:31.324Z,47.80
2024-05-09T12:26:33.733Z,49.10
2024-05-09T12:29:38.689Z,47.90
2024-05-09T12:32:41.290Z,48.20
2024-05-09T12:35:46.446Z,49.70
2024-05-09T12:39:03.334Z,50.40
2024-05-09T12:42:05.871Z,50.80
2024-05-09T12:45:08.774Z,50.80
2024-05-09T12:48:17.914Z,51.10
2024-05-09T12:51:20.336Z,51.60
2024-05-09T12:54:22.611Z,52.10
2024-05-09T12:57:25.835Z,52.60
2024-05-09T13:00:33.638Z,53.70
2024-05-09T13:03:37.018Z,51.50
2024-05-09T13:06:39.468Z,52.50
2024-05-09T13:09:41.947Z,50.90
2024-05-09T13:12:44.429Z,51.30
2024-05-09T13:15:47.060Z,50.70
2024-05-09T13:18:49.822Z,50.20
2024-05-09T13:21:52.545Z,50.40
2024-05-09T13:24:54.948Z,50.20
2024-05-09T13:27:58.123Z,51.20
2024-05-09T13:31:00.799Z,51.80
2024-05-09T13:34:03.845Z,53.10
2024-05-09T13:37:06.575Z,52.50
2024-05-09T13:40:12.118Z,53.00
2024-05-09T13:43:18.028Z,54.50
2024-05-09T13:46:21.619Z,54.70
2024-05-09T13:49:24.254Z,54.00
2024-05-09T13:52:27.035Z,54.00
2024-05-09T13:55:30.131Z,54.20
2024-05-09T13:58:32.983Z,55.00
2024-05-09T14:01:35.542Z,55.70
2024-05-09T14:04:37.992Z,55.00
2024-05-09T14:07:41.020Z,54.20
2024-05-09T14:10:46.591Z,54.50
2024-05-09T14:13:49.399Z,54.20
2024-05-09T14:16:52.162Z,54.20
2024-05-09T14:19:54.728Z,55.50
2024-05-09T14:22:57.013Z,56.10
2024-05-09T14:25:59.426Z,55.90
2024-05-09T14:29:01.868Z,56.30
2024-05-09T14:32:04.561Z,56.70
2024-05-09T14:35:07.317Z,56.40
2024-05-09T14:38:10.293Z,56.30
2024-05-09T14:41:13.586Z,56.40
2024-05-09T14:44:16.369Z,56.50
2024-05-09T14:47:18.844Z,56.00
2024-05-09T14:50:28.069Z,55.30
2024-05-09T14:53:37.241Z,56.80
2024-05-09T14:56:39.927Z,56.80
2024-05-09T14:59:42.490Z,57.00
2024-05-09T15:02:45.464Z,57.20
2024-05-09T15:05:49.151Z,57.80
2024-05-09T15:08:59.427Z,57.90
2024-05-09T15:12:02.486Z,57.30
2024-05-09T15:15:05.782Z,58.10
2024-05-09T15:18:08.635Z,58.40
2024-05-09T15:21:11.302Z,59.30
2024-05-09T15:24:13.686Z,60.10
2024-05-09T15:27:16.566Z,59.60
2024-05-09T15:30:28.106Z,59.70
2024-05-09T15:33:34.047Z,59.50
2024-05-09T15:36:37.137Z,59.60
2024-05-09T15:39:40.431Z,60.30
2024-05-09T15:42:43.363Z,60.20
2024-05-09T15:45:46.242Z,60.00
2024-05-09T15:48:49.031Z,60.00
2024-05-09T15:51:51.884Z,60.60
2024-05-09T15:54:54.516Z,61.00
2024-05-09T15:57:57.127Z,61.30
2024-05-09T16:01:00.308Z,61.60
2024-05-09T16:04:03.240Z,61.70
2024-05-09T16:07:06.083Z,61.70
2024-05-09T16:10:11.105Z,61.30
2024-05-09T16:13:17.181Z,61.90
2024-05-09T16:16:20.387Z,61.90
2024-05-09T16:19:23.211Z,62.80
2024-05-09T16:22:25.897Z,63.00
2024-05-09T16:25:28.490Z,63.30
2024-05-09T16:28:31.456Z,63.10
2024-05-09T16:31:34.098Z,63.60
2024-05-09T16:34:36.681Z,63.70
2024-05-09T16:37:39.442Z,63.70
2024-05-09T16:40:42.082Z,63.40
2024-05-09T16:43:44.540Z,63.40
2024-05-09T16:46:47.231Z,63.80
2024-05-09T16:49:49.916Z,63.60
2024-05-09T16:52:52.324Z,63.90
2024-05-09T16:55:55.416Z,63.80
2024-05-09T16:58:58.096Z,63.50
2024-05-09T17:02:00.764Z,62.80
2024-05-09T17:05:03.881Z,62.80
2024-05-09T17:08:07.246Z,63.10
2024-05-09T17:11:11.552Z,63.40
2024-05-09T17:14:14.307Z,63.40
2024-05-09T17:17:17.403Z,63.00
2024-05-09T17:20:29.343Z,63.80
2024-05-09T17:23:37.566Z,63.80
2024-05-09T17:26:40.033Z,64.70
2024-05-09T17:29:42.500Z,65.40
2024-05-09T17:32:45.159Z,65.20
2024-05-09T17:35:50.805Z,65.50
2024-05-09T17:38:53.532Z,65.80
2024-05-09T17:41:57.200Z,66.40
2024-05-09T17:45:00.129Z,66.20
2024-05-09T17:48:03.435Z,66.30
2024-05-09T17:51:06.505Z,66.20
2024-05-09T17:54:09.036Z,66.30
2024-05-09T17:57:11.441Z,66.80
2024-05-09T18:00:17.459Z,66.90
2024-05-09T18:03:23.962Z,66.60
2024-05-09T18:06:26.783Z,66.90
2024-05-09T18:09:29.058Z,67.30
2024-05-09T18:12:31.679Z,68.00
2024-05-09T18:15:34.604Z,67.80
2024-05-09T18:18:37.334Z,67.80
2024-05-09T18:21:40.170Z,68.10
2024-05-09T18:24:42.749Z,68.90
2024-05-09T18:27:45.208Z,68.30
2024-05-09T18:30:47.867Z,69.20
2024-05-09T18:33:51.108Z,69.10
2024-05-09T18:36:54.043Z,69.20
2024-05-09T18:39:56.647Z,69.90
2024-05-09T18:42:59.217Z,69.40
2024-05-09T18:46:04.187Z,69.30
2024-05-09T18:49:06.673Z,69.90
2024-05-09T18:52:09.173Z,70.10
2024-05-09T18:55:11.907Z,70.80
2024-05-09T18:58:17.796Z,71.50
2024-05-09T19:01:20.953Z,71.30
2024-05-09T19:04:24.339Z,71.50
2024-05-09T19:07:26.770Z,72.00
2024-05-09T19:10:34.018Z,72.20
2024-05-09T19:13:37.815Z,71.40
2024-05-09T19:16:53.407Z,70.80
2024-05-09T19:19:55.788Z,70.50
2024-05-09T19:22:58.381Z,71.20
2024-05-09T19:26:00.912Z,70.20
2024-05-09T19:29:04.478Z,69.80
2024-05-09T19:32:07.349Z,69.50
2024-05-09T19:35:09.632Z,69.60
2024-05-09T19:38:12.459Z,69.40
2024-05-09T19:41:15.068Z,69.60
2024-05-09T19:44:17.747Z,69.30
2024-05-09T19:47:20.660Z,69.50
2024-05-09T19:50:31.711Z,69.60
2024-05-09T19:53:41.663Z,69.80
2024-05-09T19:56:45.515Z,71.20
2024-05-09T19:59:47.896Z,72.30
2024-05-09T20:02:50.472Z,72.80
2024-05-09T20:05:53.056Z,74.60
2024-05-09T20:08:57.403Z,75.00
2024-05-09T20:11:59.941Z,76.10
2024-05-09T20:15:02.298Z,75.30
2024-05-09T20:18:05.625Z,75.40
2024-05-09T20:21:08.874Z,76.00
2024-05-09T20:24:11.573Z,76.30
2024-05-09T20:27:14.145Z,76.40
2024-05-09T20:30:24.770Z,76.60
2024-05-09T20:33:31.374Z,75.80
2024-05-09T20:36:33.816Z,76.10
2024-05-09T20:39:36.438Z,75.80
2024-05-09T20:42:38.839Z,75.20
2024-05-09T20:45:41.500Z,75.60
2024-05-09T20:48:44.226Z,75.20
2024-05-09T20:51:46.862Z,75.40
2024-05-09T20:54:49.412Z,75.70
2024-05-09T20:57:52.474Z,75.60
2024-05-09T21:00:54.972Z,76.00
2024-05-09T21:03:57.958Z,75.30
2024-05-09T21:07:00.788Z,75.50
2024-05-09T21:10:04.704Z,76.00
2024-05-09T21:13:10.690Z,76.00
2024-05-09T21:16:13.075Z,76.80
2024-05-09T21:19:15.666Z,77.70
2024-05-09T21:22:18.354Z,77.50
2024-05-09T21:25:20.831Z,77.90
2024-05-09T21:28:24.395Z,77.60
2024-05-09T21:31:27.156Z,78.40
2024-05-09T21:34:30.177Z,78.90
2024-05-09T21:37:32.486Z,79.70
2024-05-09T21:40:36.583Z,79.70
2024-05-09T21:43:39.801Z,80.10
2024-05-09T21:46:42.283Z,79.70
2024-05-09T21:49:44.575Z,80.60
2024-05-09T21:52:47.221Z,81.30
2024-05-09T21:55:49.768Z,80.60
2024-05-09T21:58:52.183Z,80.20
2024-05-09T22:01:54.775Z,80.50
2024-05-09T22:04:57.510Z,80.60
2024-05-09T22:07:59.913Z,80.50
2024-05-09T22:11:02.596Z,81.80
2024-05-09T22:14:05.138Z,81.40
2024-05-09T22:17:07.793Z,81.30
2024-05-09T22:20:18.079Z,81.80
2024-05-09T22:23:25.013Z,82.20
2024-05-09T22:26:27.317Z,82.00
2024-05-09T22:29:29.930Z,82.20
2024-05-09T22:32:32.341Z,82.90
2024-05-09T22:35:34.744Z,82.90
2024-05-09T22:38:37.355Z,83.10
2024-05-09T22:41:41.324Z,83.40
2024-05-09T22:44:43.695Z,83.30
2024-05-09T22:47:46.320Z,83.00
2024-05-09T22:50:48.769Z,84.00
2024-05-09T22:53:51.198Z,84.30
2024-05-09T22:56:53.798Z,84.70
2024-05-09T22:59:56.775Z,84.60
2024-05-09T23:03:03.574Z,85.00
2024-05-09T23:06:07.017Z,85.30
2024-05-09T23:09:10.729Z,85.70
2024-05-09T23:12:18.029Z,85.40
2024-05-09T23:15:20.538Z,86.20
2024-05-09T23:18:23.193Z,85.70
2024-05-09T23:21:27.258Z,86.00
2024-05-09T23:24:30.768Z,86.10
2024-05-09T23:27:33.111Z,86.10
2024-05-09T23:30:39.057Z,86.10
2024-05-09T23:33:47.139Z,85.90
2024-05-09T23:36:49.642Z,86.40
2024-05-09T23:39:52.269Z,86.40
2024-05-09T23:42:54.868Z,86.50
2024-05-09T23:45:57.399Z,86.30
2024-05-09T23:48:59.963Z,86.20
2024-05-09T23:52:02.624Z,86.30
2024-05-09T23:55:05.419Z,86.00
2024-05-09T23:58:08.329Z,86.70
